createdAt,value
2016-12-21T00:00:54.809Z,0
2016-12-21T00:02:03.508Z,0
2016-12-21T00:03:12.523Z,0
2016-12-21T00:04:21.212Z,0
2016-12-21T00:05:29.906Z,0
2016-12-21T00:06:38.601Z,0
2016-12-21T00:07:47.290Z,0
2016-12-21T00:08:55.977Z,0
2016-12-21T00:10:04.686Z,0
2016-12-21T00:11:13.377Z,0
2016-12-21T00:12:22.385Z,0
2016-12-21T00:13:31.081Z,0
2016-12-21T00:14:39.771Z,0
2016-12-21T00:15:48.462Z,0
2016-12-21T00:16:57.149Z,0
2016-12-21T00:18:05.839Z,0
2016-12-21T00:19:14.529Z,0
2016-12-21T00:20:23.213Z,0
2016-12-21T00:21:32.220Z,0
2016-12-21T00:22:40.912Z,0
2016-12-21T00:23:49.611Z,0
2016-12-21T00:24:58.302Z,0
2016-12-21T00:26:07.000Z,0
2016-12-21T00:27:15.691Z,0
2016-12-21T00:28:24.379Z,0
2016-12-21T00:29:33.072Z,0
2016-12-21T00:30:41.768Z,0
2016-12-21T00:31:50.455Z,0
2016-12-21T00:32:59.151Z,0
2016-12-21T00:34:07.842Z,0
2016-12-21T00:35:16.533Z,0
2016-12-21T00:36:25.227Z,0
2016-12-21T00:37:33.915Z,0
2016-12-21T00:38:42.603Z,0
2016-12-21T00:39:51.293Z,0
2016-12-21T00:40:59.995Z,0
2016-12-21T00:42:08.995Z,0
2016-12-21T00:43:17.693Z,0
2016-12-21T00:44:26.384Z,0
2016-12-21T00:45:35.075Z,0
2016-12-21T00:46:43.763Z,0
2016-12-21T00:47:52.457Z,0
2016-12-21T00:49:01.145Z,0
2016-12-21T00:50:09.834Z,0
2016-12-21T00:51:18.529Z,0
2016-12-21T00:52:27.217Z,0
2016-12-21T00:53:35.912Z,0
2016-12-21T00:54:44.914Z,0
2016-12-21T00:55:53.624Z,0
2016-12-21T00:57:02.310Z,0
2016-12-21T00:58:11.000Z,0
2016-12-21T00:59:19.697Z,0
2016-12-21T01:00:28.389Z,0
2016-12-21T01:01:37.075Z,0
2016-12-21T01:02:45.764Z,0
2016-12-21T01:03:54.451Z,0
2016-12-21T01:05:03.453Z,0
2016-12-21T01:06:12.156Z,0
2016-12-21T01:07:20.846Z,0
2016-12-21T01:08:29.533Z,0
2016-12-21T01:09:38.225Z,0
2016-12-21T01:10:46.919Z,0
2016-12-21T01:11:55.608Z,0
2016-12-21T01:13:04.622Z,0
2016-12-21T01:14:13.310Z,0
2016-12-21T01:15:22.320Z,0
2016-12-21T01:16:31.010Z,0
2016-12-21T01:17:39.710Z,0
2016-12-21T01:18:48.398Z,0
2016-12-21T01:19:57.085Z,0
2016-12-21T01:21:05.778Z,0
2016-12-21T01:22:14.471Z,0
2016-12-21T01:23:23.162Z,0
2016-12-21T01:24:31.848Z,0
2016-12-21T01:25:40.536Z,0
2016-12-21T01:26:49.226Z,0
2016-12-21T01:27:57.920Z,0
2016-12-21T01:29:06.612Z,0
2016-12-21T01:30:15.300Z,0
2016-12-21T01:31:23.986Z,0
2016-12-21T01:32:32.675Z,0
2016-12-21T01:33:41.360Z,0
2016-12-21T01:34:50.050Z,0
2016-12-21T01:35:58.743Z,0
2016-12-21T01:37:07.428Z,0
2016-12-21T01:38:16.118Z,0
2016-12-21T01:39:24.806Z,0
2016-12-21T01:40:33.499Z,0
2016-12-21T01:41:42.188Z,0
2016-12-21T01:42:50.876Z,0
2016-12-21T01:43:59.562Z,0
2016-12-21T01:45:08.252Z,0
2016-12-21T01:46:16.939Z,0
2016-12-21T01:47:25.626Z,0
2016-12-21T01:48:34.317Z,0
2016-12-21T01:49:43.013Z,0
2016-12-21T01:50:51.708Z,0
2016-12-21T01:52:00.397Z,0
2016-12-21T01:53:09.087Z,0
2016-12-21T01:54:17.780Z,0
2016-12-21T01:55:26.467Z,0
2016-12-21T01:56:35.159Z,0
2016-12-21T01:57:43.852Z,0
2016-12-21T01:58:52.541Z,0
2016-12-21T02:00:01.233Z,0
2016-12-21T02:01:09.924Z,0
2016-12-21T02:02:18.615Z,0
2016-12-21T02:03:27.306Z,0
2016-12-21T02:04:35.994Z,0
2016-12-21T02:05:44.675Z,0
2016-12-21T02:06:53.367Z,0
2016-12-21T02:08:02.057Z,0
2016-12-21T02:09:10.755Z,0
2016-12-21T02:10:19.462Z,0
2016-12-21T02:11:28.202Z,0
2016-12-21T02:12:36.895Z,0
2016-12-21T02:13:45.583Z,0
2016-12-21T02:14:54.269Z,0
2016-12-21T02:16:02.962Z,0
2016-12-21T02:17:11.646Z,0
2016-12-21T02:18:20.335Z,0
2016-12-21T02:19:29.033Z,0
2016-12-21T02:20:37.719Z,0
2016-12-21T02:21:46.407Z,0
2016-12-21T02:22:55.101Z,0
2016-12-21T02:24:03.789Z,0
2016-12-21T02:25:12.485Z,0
2016-12-21T02:26:21.179Z,0
2016-12-21T02:27:29.867Z,0
2016-12-21T02:28:38.555Z,0
2016-12-21T02:29:47.242Z,0
2016-12-21T02:30:55.958Z,0
2016-12-21T02:32:04.645Z,0
2016-12-21T02:33:13.333Z,0
2016-12-21T02:34:22.023Z,0
2016-12-21T02:35:30.709Z,0
2016-12-21T02:36:39.400Z,0
2016-12-21T02:37:48.089Z,0
2016-12-21T02:38:56.777Z,0
2016-12-21T02:40:05.464Z,0
2016-12-21T02:41:14.156Z,0
2016-12-21T02:42:22.837Z,0
2016-12-21T02:43:31.531Z,0
2016-12-21T02:44:40.216Z,0
2016-12-21T02:45:48.906Z,0
2016-12-21T02:46:57.592Z,0
2016-12-21T02:48:06.280Z,0
2016-12-21T02:49:14.993Z,0
2016-12-21T02:50:23.680Z,0
2016-12-21T02:51:32.367Z,0
2016-12-21T02:52:41.060Z,0
2016-12-21T02:53:49.749Z,0
2016-12-21T02:54:58.444Z,0
2016-12-21T02:56:07.129Z,0
2016-12-21T02:57:15.819Z,0
2016-12-21T02:58:24.505Z,0
2016-12-21T02:59:33.196Z,0
2016-12-21T03:00:41.887Z,0
2016-12-21T03:01:50.583Z,0
2016-12-21T03:02:59.272Z,0
2016-12-21T03:04:07.963Z,0
2016-12-21T03:05:16.649Z,0
2016-12-21T03:06:25.370Z,0
2016-12-21T03:07:34.062Z,0
2016-12-21T03:08:42.748Z,0
2016-12-21T03:09:51.435Z,0
2016-12-21T03:11:00.452Z,0
2016-12-21T03:12:09.181Z,0
2016-12-21T03:13:17.872Z,0
2016-12-21T03:14:26.616Z,0
2016-12-21T03:15:35.620Z,0
2016-12-21T03:16:44.314Z,0
2016-12-21T03:17:52.999Z,0
2016-12-21T03:19:01.685Z,0
2016-12-21T03:20:10.371Z,0
2016-12-21T03:21:19.060Z,0
2016-12-21T03:22:27.748Z,0
2016-12-21T03:23:36.434Z,0
2016-12-21T03:24:45.122Z,0
2016-12-21T03:25:54.160Z,0
2016-12-21T03:27:02.852Z,0
2016-12-21T03:28:11.548Z,0
2016-12-21T03:29:20.235Z,0
2016-12-21T03:30:28.921Z,0
2016-12-21T03:31:37.616Z,0
2016-12-21T03:32:46.615Z,0
2016-12-21T03:33:55.301Z,0
2016-12-21T03:35:03.992Z,0
2016-12-21T03:36:12.679Z,0
2016-12-21T03:37:21.372Z,0
2016-12-21T03:38:30.065Z,0
2016-12-21T03:39:38.755Z,0
2016-12-21T03:40:47.442Z,0
2016-12-21T03:41:56.139Z,0
2016-12-21T03:43:04.833Z,0
2016-12-21T03:44:13.527Z,0
2016-12-21T03:45:22.214Z,0
2016-12-21T03:46:30.897Z,0
2016-12-21T03:47:39.590Z,0
2016-12-21T03:48:48.277Z,0
2016-12-21T03:49:56.965Z,0
2016-12-21T03:51:05.662Z,0
2016-12-21T03:52:14.352Z,0
2016-12-21T03:53:23.041Z,0
2016-12-21T03:54:31.737Z,0
2016-12-21T03:55:40.426Z,0
2016-12-21T03:56:49.120Z,0
2016-12-21T03:57:57.806Z,0
2016-12-21T03:59:06.494Z,0
2016-12-21T04:00:15.187Z,0
2016-12-21T04:01:23.905Z,0
2016-12-21T04:02:32.592Z,0
2016-12-21T04:03:41.279Z,0
2016-12-21T04:04:49.966Z,0
2016-12-21T04:05:58.665Z,0
2016-12-21T04:07:07.354Z,0
2016-12-21T04:08:16.042Z,0
2016-12-21T04:09:24.734Z,0
2016-12-21T04:10:33.424Z,0
2016-12-21T04:11:42.114Z,0
2016-12-21T04:12:50.807Z,0
2016-12-21T04:13:59.494Z,0
2016-12-21T04:15:08.510Z,0
2016-12-21T04:16:17.221Z,0
2016-12-21T04:17:25.912Z,0
2016-12-21T04:18:34.598Z,0
2016-12-21T04:19:43.285Z,0
2016-12-21T04:20:52.005Z,0
2016-12-21T04:22:00.692Z,0
2016-12-21T04:23:09.384Z,0
2016-12-21T04:24:18.070Z,0
2016-12-21T04:25:26.763Z,0
2016-12-21T04:26:35.461Z,0
2016-12-21T04:27:44.146Z,0
2016-12-21T04:28:52.833Z,0
2016-12-21T04:30:01.525Z,0
2016-12-21T04:31:10.217Z,0
2016-12-21T04:32:18.911Z,0
2016-12-21T04:33:27.599Z,0
2016-12-21T04:34:36.293Z,0
2016-12-21T04:35:44.983Z,0
2016-12-21T04:36:53.672Z,0
2016-12-21T04:38:02.361Z,0
2016-12-21T04:39:11.051Z,0
2016-12-21T04:40:19.745Z,0
2016-12-21T04:41:28.440Z,0
2016-12-21T04:42:37.138Z,0
2016-12-21T04:43:45.852Z,0
2016-12-21T04:44:54.540Z,0
2016-12-21T04:46:03.232Z,0
2016-12-21T04:47:11.922Z,0
2016-12-21T04:48:20.611Z,0
2016-12-21T04:49:29.300Z,0
2016-12-21T04:50:37.995Z,0
2016-12-21T04:51:46.688Z,0
2016-12-21T04:52:55.379Z,0
2016-12-21T04:54:04.078Z,0
2016-12-21T04:55:12.796Z,0
2016-12-21T04:56:21.483Z,0
2016-12-21T04:57:30.210Z,0
2016-12-21T04:58:38.904Z,0
2016-12-21T04:59:47.593Z,0
2016-12-21T05:00:56.288Z,0
2016-12-21T05:02:05.293Z,0
2016-12-21T05:03:13.984Z,0
2016-12-21T05:04:22.673Z,0
2016-12-21T05:05:31.391Z,0
2016-12-21T05:06:40.392Z,0
2016-12-21T05:07:49.078Z,0
2016-12-21T05:08:57.766Z,0
2016-12-21T05:10:06.460Z,0
2016-12-21T05:11:15.173Z,0
2016-12-21T05:12:23.866Z,0
2016-12-21T05:13:32.582Z,0
2016-12-21T05:14:41.273Z,0
2016-12-21T05:15:49.956Z,0
2016-12-21T05:16:58.655Z,0
2016-12-21T05:18:07.345Z,0
2016-12-21T05:19:16.043Z,0
2016-12-21T05:20:24.730Z,0
2016-12-21T05:21:33.424Z,0
2016-12-21T05:22:42.113Z,0
2016-12-21T05:23:50.799Z,0
2016-12-21T05:24:59.493Z,0
2016-12-21T05:26:08.184Z,0
2016-12-21T05:27:16.874Z,0
2016-12-21T05:28:25.563Z,0
2016-12-21T05:29:34.252Z,0
2016-12-21T05:30:42.973Z,0
2016-12-21T05:31:51.697Z,0
2016-12-21T05:33:00.394Z,0
2016-12-21T05:34:09.087Z,0
2016-12-21T05:35:17.779Z,0
2016-12-21T05:36:26.471Z,0
2016-12-21T05:37:35.160Z,0
2016-12-21T05:38:43.849Z,0
2016-12-21T05:39:52.542Z,0
2016-12-21T05:41:01.245Z,0
2016-12-21T05:42:09.930Z,0
2016-12-21T05:43:18.941Z,0
2016-12-21T05:44:27.659Z,0
2016-12-21T05:45:36.679Z,0
2016-12-21T05:46:45.373Z,0
2016-12-21T05:47:54.065Z,0
2016-12-21T05:49:02.765Z,0
2016-12-21T05:50:11.458Z,0
2016-12-21T05:51:20.150Z,0
2016-12-21T05:52:28.842Z,0
2016-12-21T05:53:37.535Z,0
2016-12-21T05:54:46.232Z,0
2016-12-21T05:55:54.923Z,0
2016-12-21T05:57:03.611Z,0
2016-12-21T05:58:12.297Z,0
2016-12-21T05:59:20.987Z,0
2016-12-21T06:00:29.678Z,0
2016-12-21T06:01:38.371Z,0
2016-12-21T06:02:47.058Z,0
2016-12-21T06:03:55.744Z,0
2016-12-21T06:05:04.435Z,0
2016-12-21T06:06:13.127Z,0
2016-12-21T06:07:21.819Z,0
2016-12-21T06:08:30.509Z,0
2016-12-21T06:09:39.201Z,0
2016-12-21T06:10:47.918Z,0
2016-12-21T06:11:56.604Z,0
2016-12-21T06:13:05.291Z,0
2016-12-21T06:14:14.011Z,0
2016-12-21T06:15:22.703Z,0
2016-12-21T06:16:31.388Z,0
2016-12-21T06:17:40.083Z,0
2016-12-21T06:18:48.776Z,0
2016-12-21T06:19:57.465Z,0
2016-12-21T06:21:06.156Z,0
2016-12-21T06:22:14.846Z,0
2016-12-21T06:23:23.537Z,0
2016-12-21T06:24:32.228Z,0
2016-12-21T06:25:40.916Z,0
2016-12-21T06:26:49.603Z,0
2016-12-21T06:27:58.298Z,0
2016-12-21T06:29:06.991Z,0
2016-12-21T06:30:15.678Z,0
2016-12-21T06:31:24.689Z,0
2016-12-21T06:32:33.376Z,0
2016-12-21T06:33:42.065Z,0
2016-12-21T06:34:50.752Z,0
2016-12-21T06:35:59.439Z,0
2016-12-21T06:37:08.126Z,0
2016-12-21T06:38:16.812Z,0
2016-12-21T06:39:25.502Z,0
2016-12-21T06:40:34.197Z,0
2016-12-21T06:41:42.886Z,0
2016-12-21T06:42:51.584Z,0
2016-12-21T06:44:00.270Z,0
2016-12-21T06:45:08.964Z,0
2016-12-21T06:46:17.654Z,0
2016-12-21T06:47:26.344Z,0
2016-12-21T06:48:35.057Z,0
2016-12-21T06:49:43.743Z,0
2016-12-21T06:50:52.431Z,0
2016-12-21T06:52:01.157Z,0
2016-12-21T06:53:09.843Z,0
2016-12-21T06:54:18.534Z,0
2016-12-21T06:55:27.228Z,0
2016-12-21T06:56:35.932Z,0
2016-12-21T06:57:44.625Z,0
2016-12-21T06:58:53.314Z,0
2016-12-21T07:00:02.005Z,0
2016-12-21T07:01:10.697Z,0
2016-12-21T07:02:19.384Z,0
2016-12-21T07:03:28.123Z,0
2016-12-21T07:04:36.850Z,0
2016-12-21T07:05:45.541Z,0
2016-12-21T07:06:54.228Z,0
2016-12-21T07:08:02.922Z,0
2016-12-21T07:09:11.609Z,0
2016-12-21T07:10:20.296Z,0
2016-12-21T07:11:28.983Z,0
2016-12-21T07:12:37.674Z,0
2016-12-21T07:13:46.364Z,0
2016-12-21T07:14:55.058Z,0
2016-12-21T07:16:03.751Z,0
2016-12-21T07:17:12.436Z,0
2016-12-21T07:18:21.449Z,0
2016-12-21T07:19:30.135Z,0
2016-12-21T07:20:38.835Z,0
2016-12-21T07:21:47.526Z,0
2016-12-21T07:22:56.216Z,0
2016-12-21T07:24:04.911Z,0
2016-12-21T07:25:13.602Z,0
2016-12-21T07:26:22.341Z,0
2016-12-21T07:27:31.034Z,0
2016-12-21T07:28:39.729Z,0
2016-12-21T07:29:48.419Z,0
2016-12-21T07:30:57.108Z,0
2016-12-21T07:32:05.796Z,0
2016-12-21T07:33:14.488Z,0
2016-12-21T07:34:23.184Z,0
2016-12-21T07:35:31.876Z,0
2016-12-21T07:36:40.564Z,0
2016-12-21T07:37:49.261Z,0
2016-12-21T07:38:57.951Z,0
2016-12-21T07:40:06.645Z,0
2016-12-21T07:41:15.657Z,0
2016-12-21T07:42:24.352Z,0
2016-12-21T07:43:33.046Z,0
2016-12-21T07:44:41.753Z,0
2016-12-21T07:45:50.445Z,0
2016-12-21T07:46:59.137Z,0
2016-12-21T07:48:07.830Z,0
2016-12-21T07:49:16.545Z,0
2016-12-21T07:50:25.237Z,0
2016-12-21T07:51:33.939Z,0
2016-12-21T07:52:42.630Z,0
2016-12-21T07:53:51.331Z,0
2016-12-21T07:55:00.020Z,0
2016-12-21T07:56:08.717Z,0
2016-12-21T07:57:17.412Z,0
2016-12-21T07:58:26.099Z,0
2016-12-21T07:59:34.789Z,0
2016-12-21T08:00:43.806Z,0
2016-12-21T08:01:52.496Z,0
2016-12-21T08:03:01.186Z,0
2016-12-21T08:04:09.882Z,0
2016-12-21T08:05:18.569Z,0
2016-12-21T08:06:27.259Z,0
2016-12-21T08:07:35.955Z,0
2016-12-21T08:08:44.646Z,0
2016-12-21T08:09:53.336Z,0
2016-12-21T08:11:02.026Z,0
2016-12-21T08:12:10.715Z,0
2016-12-21T08:13:19.404Z,0
2016-12-21T08:14:28.096Z,0
2016-12-21T08:15:36.786Z,0
2016-12-21T08:16:45.474Z,0
2016-12-21T08:17:54.187Z,0
2016-12-21T08:19:02.882Z,0
2016-12-21T08:20:11.615Z,0
2016-12-21T08:21:20.300Z,0
2016-12-21T08:22:29.002Z,0
2016-12-21T08:23:37.693Z,0
2016-12-21T08:24:46.391Z,0
2016-12-21T08:25:55.078Z,0
2016-12-21T08:27:03.765Z,0
2016-12-21T08:28:12.455Z,0
2016-12-21T08:29:21.149Z,0
2016-12-21T08:30:29.840Z,0
2016-12-21T08:31:38.559Z,0
2016-12-21T08:32:47.245Z,0
2016-12-21T08:33:55.938Z,0
2016-12-21T08:35:04.681Z,5
2016-12-21T08:36:13.376Z,5
2016-12-21T08:37:22.062Z,5
2016-12-21T08:38:30.752Z,5
2016-12-21T08:39:39.442Z,5
2016-12-21T08:40:48.126Z,5
2016-12-21T08:41:56.820Z,5
2016-12-21T08:43:05.506Z,5
2016-12-21T08:44:14.197Z,10
2016-12-21T08:45:22.891Z,10
2016-12-21T08:46:31.589Z,10
2016-12-21T08:47:40.593Z,10
2016-12-21T08:48:49.276Z,10
2016-12-21T08:49:57.962Z,15
2016-12-21T08:51:06.657Z,15
2016-12-21T08:52:15.349Z,15
2016-12-21T08:53:24.070Z,15
2016-12-21T08:54:32.759Z,15
2016-12-21T08:55:41.446Z,15
2016-12-21T08:56:50.126Z,15
2016-12-21T08:57:58.820Z,20
2016-12-21T08:59:07.508Z,20
2016-12-21T09:00:16.223Z,20
2016-12-21T09:01:24.908Z,20
2016-12-21T09:02:33.593Z,25
2016-12-21T09:03:42.281Z,25
2016-12-21T09:04:50.974Z,30
2016-12-21T09:05:59.667Z,30
2016-12-21T09:07:08.674Z,30
2016-12-21T09:08:17.360Z,30
2016-12-21T09:09:26.047Z,35
2016-12-21T09:10:34.762Z,35
2016-12-21T09:11:43.449Z,35
2016-12-21T09:12:52.181Z,35
2016-12-21T09:14:00.867Z,35
2016-12-21T09:15:09.552Z,30
2016-12-21T09:16:18.242Z,30
2016-12-21T09:17:26.931Z,30
2016-12-21T09:18:35.622Z,25
2016-12-21T09:19:44.314Z,25
2016-12-21T09:20:53.006Z,25
2016-12-21T09:22:01.700Z,25
2016-12-21T09:23:10.400Z,25
2016-12-21T09:24:19.093Z,25
2016-12-21T09:25:27.791Z,25
2016-12-21T09:26:36.484Z,20
2016-12-21T09:27:45.179Z,20
2016-12-21T09:28:53.884Z,20
2016-12-21T09:30:02.573Z,20
2016-12-21T09:31:11.266Z,20
2016-12-21T09:32:19.962Z,20
2016-12-21T09:33:28.647Z,20
2016-12-21T09:34:37.333Z,20
2016-12-21T09:35:46.024Z,20
2016-12-21T09:36:54.718Z,20
2016-12-21T09:38:03.405Z,20
2016-12-21T09:39:12.125Z,20
2016-12-21T09:40:20.820Z,20
2016-12-21T09:41:29.516Z,20
2016-12-21T09:42:38.207Z,25
2016-12-21T09:43:46.893Z,25
2016-12-21T09:44:55.583Z,25
2016-12-21T09:46:04.275Z,25
2016-12-21T09:47:12.969Z,25
2016-12-21T09:48:21.661Z,30
2016-12-21T09:49:30.402Z,30
2016-12-21T09:50:39.089Z,30
2016-12-21T09:51:47.783Z,35
2016-12-21T09:52:56.471Z,35
2016-12-21T09:54:05.161Z,40
2016-12-21T09:55:13.855Z,40
2016-12-21T09:56:22.596Z,45
2016-12-21T09:57:31.314Z,45
2016-12-21T09:58:40.003Z,45
2016-12-21T09:59:48.697Z,40
2016-12-21T10:00:57.385Z,35
2016-12-21T10:02:06.074Z,30
2016-12-21T10:03:14.766Z,30
2016-12-21T10:04:23.465Z,30
2016-12-21T10:05:32.155Z,25
2016-12-21T10:06:40.844Z,25
2016-12-21T10:07:49.538Z,25
2016-12-21T10:08:58.232Z,25
2016-12-21T10:10:06.952Z,25
2016-12-21T10:11:15.643Z,25
2016-12-21T10:12:24.335Z,25
2016-12-21T10:13:33.021Z,25
2016-12-21T10:14:41.711Z,30
2016-12-21T10:15:50.400Z,25
2016-12-21T10:16:59.091Z,25
2016-12-21T10:18:07.788Z,25
2016-12-21T10:19:16.475Z,30
2016-12-21T10:20:25.191Z,35
2016-12-21T10:21:34.204Z,35
2016-12-21T10:22:42.902Z,40
2016-12-21T10:23:51.890Z,45
2016-12-21T10:25:00.577Z,50
2016-12-21T10:26:09.274Z,50
2016-12-21T10:27:17.970Z,50
2016-12-21T10:28:26.661Z,50
2016-12-21T10:29:35.347Z,50
2016-12-21T10:30:44.035Z,50
2016-12-21T10:31:52.728Z,45
2016-12-21T10:33:01.417Z,45
2016-12-21T10:34:10.110Z,45
2016-12-21T10:35:18.800Z,40
2016-12-21T10:36:27.496Z,40
2016-12-21T10:37:36.214Z,40
2016-12-21T10:38:44.909Z,40
2016-12-21T10:39:53.608Z,40
2016-12-21T10:41:02.295Z,40
2016-12-21T10:42:10.981Z,40
2016-12-21T10:43:19.678Z,40
2016-12-21T10:44:28.363Z,40
2016-12-21T10:45:37.057Z,40
2016-12-21T10:46:45.757Z,40
2016-12-21T10:47:54.456Z,45
2016-12-21T10:49:03.178Z,45
2016-12-21T10:50:11.871Z,50
2016-12-21T10:51:20.574Z,45
2016-12-21T10:52:29.273Z,45
2016-12-21T10:53:37.968Z,45
2016-12-21T10:54:46.659Z,40
2016-12-21T10:55:55.351Z,40
2016-12-21T10:57:04.039Z,35
2016-12-21T10:58:12.724Z,30
2016-12-21T10:59:21.417Z,30
2016-12-21T11:00:30.109Z,30
2016-12-21T11:01:38.800Z,25
2016-12-21T11:02:47.502Z,25
2016-12-21T11:03:56.188Z,20
2016-12-21T11:05:04.938Z,20
2016-12-21T11:06:13.631Z,20
2016-12-21T11:07:22.317Z,20
2016-12-21T11:08:31.006Z,20
2016-12-21T11:09:39.696Z,20
2016-12-21T11:10:48.390Z,20
2016-12-21T11:11:57.080Z,20
2016-12-21T11:13:05.772Z,20
2016-12-21T11:14:14.473Z,20
2016-12-21T11:15:23.161Z,20
2016-12-21T11:16:31.852Z,20
2016-12-21T11:17:40.886Z,25
2016-12-21T11:18:49.578Z,30
2016-12-21T11:19:58.269Z,30
2016-12-21T11:21:06.965Z,35
2016-12-21T11:22:15.652Z,35
2016-12-21T11:23:24.343Z,40
2016-12-21T11:24:33.033Z,35
2016-12-21T11:25:41.728Z,35
2016-12-21T11:26:50.514Z,35
2016-12-21T11:27:59.207Z,35
2016-12-21T11:29:07.905Z,35
2016-12-21T11:30:16.594Z,35
2016-12-21T11:31:25.595Z,35
2016-12-21T11:32:34.341Z,35
2016-12-21T11:33:43.037Z,30
2016-12-21T11:34:51.725Z,25
2016-12-21T11:36:00.414Z,25
2016-12-21T11:37:09.111Z,25
2016-12-21T11:38:17.800Z,25
2016-12-21T11:39:26.490Z,25
2016-12-21T11:40:35.211Z,25
2016-12-21T11:41:43.906Z,20
2016-12-21T11:42:52.597Z,25
2016-12-21T11:44:01.917Z,25
2016-12-21T11:45:10.611Z,25
2016-12-21T11:46:19.301Z,30
2016-12-21T11:47:27.987Z,30
2016-12-21T11:48:36.673Z,30
2016-12-21T11:49:45.359Z,30
2016-12-21T11:50:54.434Z,25
2016-12-21T11:52:03.124Z,25
2016-12-21T11:53:11.814Z,25
2016-12-21T11:54:20.503Z,25
2016-12-21T11:55:29.193Z,25
2016-12-21T11:56:37.885Z,30
2016-12-21T11:57:46.575Z,30
2016-12-21T11:58:55.331Z,30
2016-12-21T12:00:04.034Z,35
2016-12-21T12:01:12.723Z,35
2016-12-21T12:02:21.417Z,30
2016-12-21T12:03:30.107Z,25
2016-12-21T12:04:38.799Z,25
2016-12-21T12:05:47.492Z,25
2016-12-21T12:06:56.180Z,20
2016-12-21T12:08:04.868Z,20
2016-12-21T12:09:13.557Z,20
2016-12-21T12:10:22.252Z,20
2016-12-21T12:11:30.937Z,20
2016-12-21T12:12:39.630Z,20
2016-12-21T12:13:48.318Z,20
2016-12-21T12:14:57.003Z,20
2016-12-21T12:16:05.711Z,15
2016-12-21T12:17:14.399Z,15
2016-12-21T12:18:23.121Z,15
2016-12-21T12:19:31.823Z,15
2016-12-21T12:20:40.519Z,10
2016-12-21T12:21:49.230Z,10
2016-12-21T12:22:57.916Z,10
2016-12-21T12:24:06.604Z,15
2016-12-21T12:25:15.293Z,15
2016-12-21T12:26:23.986Z,15
2016-12-21T12:27:32.674Z,15
2016-12-21T12:28:41.365Z,15
2016-12-21T12:29:50.052Z,15
2016-12-21T12:30:58.750Z,10
2016-12-21T12:32:07.446Z,10
2016-12-21T12:33:16.137Z,10
2016-12-21T12:34:24.826Z,10
2016-12-21T12:35:33.569Z,10
2016-12-21T12:36:42.263Z,10
2016-12-21T12:37:50.959Z,10
2016-12-21T12:38:59.651Z,10
2016-12-21T12:40:08.345Z,10
2016-12-21T12:41:17.035Z,10
2016-12-21T12:42:25.734Z,10
2016-12-21T12:43:34.424Z,15
2016-12-21T12:44:43.118Z,15
2016-12-21T12:45:51.805Z,20
2016-12-21T12:47:00.495Z,20
2016-12-21T12:48:09.185Z,25
2016-12-21T12:49:17.876Z,25
2016-12-21T12:50:26.569Z,25
2016-12-21T12:51:35.255Z,30
2016-12-21T12:52:43.949Z,30
2016-12-21T12:53:52.639Z,30
2016-12-21T12:55:01.332Z,25
2016-12-21T12:56:10.361Z,25
2016-12-21T12:57:19.054Z,20
2016-12-21T12:58:27.749Z,20
2016-12-21T12:59:36.470Z,20
2016-12-21T13:00:45.165Z,20
2016-12-21T13:01:54.167Z,20
2016-12-21T13:03:02.854Z,20
2016-12-21T13:04:11.545Z,15
2016-12-21T13:05:20.232Z,15
2016-12-21T13:06:28.922Z,15
2016-12-21T13:07:37.615Z,10
2016-12-21T13:08:46.307Z,10
2016-12-21T13:09:54.999Z,10
2016-12-21T13:11:03.694Z,10
2016-12-21T13:12:12.386Z,10
2016-12-21T13:13:21.076Z,10
2016-12-21T13:14:29.767Z,15
2016-12-21T13:15:38.457Z,15
2016-12-21T13:16:47.154Z,20
2016-12-21T13:17:56.170Z,20
2016-12-21T13:19:04.862Z,20
2016-12-21T13:20:13.553Z,20
2016-12-21T13:21:22.290Z,20
2016-12-21T13:22:30.979Z,15
2016-12-21T13:23:39.675Z,20
2016-12-21T13:24:48.397Z,20
2016-12-21T13:25:57.095Z,25
2016-12-21T13:27:05.786Z,30
2016-12-21T13:28:14.478Z,35
2016-12-21T13:29:23.170Z,40
2016-12-21T13:30:31.882Z,40
2016-12-21T13:31:40.573Z,35
2016-12-21T13:32:49.261Z,35
2016-12-21T13:33:57.950Z,35
2016-12-21T13:35:06.642Z,35
2016-12-21T13:36:15.337Z,40
2016-12-21T13:37:24.027Z,35
2016-12-21T13:38:32.724Z,35
2016-12-21T13:39:41.412Z,25
2016-12-21T13:40:50.098Z,20
2016-12-21T13:41:58.797Z,15
2016-12-21T13:43:07.487Z,15
2016-12-21T13:44:16.180Z,15
2016-12-21T13:45:25.228Z,15
2016-12-21T13:46:33.922Z,15
2016-12-21T13:47:42.609Z,15
2016-12-21T13:48:51.294Z,15
2016-12-21T13:49:59.982Z,10
2016-12-21T13:51:08.672Z,10
2016-12-21T13:52:17.366Z,10
2016-12-21T13:53:26.059Z,10
2016-12-21T13:54:34.745Z,10
2016-12-21T13:55:43.430Z,10
2016-12-21T13:56:52.117Z,10
2016-12-21T13:58:00.821Z,10
2016-12-21T13:59:09.524Z,10
2016-12-21T14:00:18.221Z,10
2016-12-21T14:01:26.908Z,10
2016-12-21T14:02:35.603Z,5
2016-12-21T14:03:44.292Z,5
2016-12-21T14:04:52.986Z,5
2016-12-21T14:06:01.671Z,5
2016-12-21T14:07:10.360Z,5
2016-12-21T14:08:19.058Z,0
2016-12-21T14:09:27.745Z,0
2016-12-21T14:10:36.433Z,0
2016-12-21T14:11:45.118Z,0
2016-12-21T14:12:53.808Z,0
2016-12-21T14:14:02.505Z,0
2016-12-21T14:15:11.195Z,0
2016-12-21T14:16:19.883Z,0
2016-12-21T14:17:28.568Z,0
2016-12-21T14:18:37.254Z,0
2016-12-21T14:19:45.943Z,0
2016-12-21T14:20:54.640Z,0
2016-12-21T14:22:03.332Z,0
2016-12-21T14:23:12.034Z,0
2016-12-21T14:24:20.723Z,0
2016-12-21T14:25:29.409Z,0
2016-12-21T14:26:38.100Z,0
2016-12-21T14:27:46.785Z,0
2016-12-21T14:28:55.485Z,0
2016-12-21T14:30:04.201Z,0
2016-12-21T14:31:12.887Z,0
2016-12-21T14:32:21.577Z,0
2016-12-21T14:33:30.290Z,0
2016-12-21T14:34:38.990Z,0
2016-12-21T14:35:47.689Z,0
2016-12-21T14:36:56.377Z,0
2016-12-21T14:38:05.063Z,0
2016-12-21T14:39:13.761Z,0
2016-12-21T14:40:22.471Z,0
2016-12-21T14:41:31.159Z,0
2016-12-21T14:42:39.847Z,0
2016-12-21T14:43:48.564Z,0
2016-12-21T14:44:57.261Z,0
2016-12-21T14:46:05.987Z,0
2016-12-21T14:47:14.681Z,0
2016-12-21T14:48:23.375Z,0
2016-12-21T14:49:32.095Z,0
2016-12-21T14:50:41.094Z,0
2016-12-21T14:51:49.781Z,0
2016-12-21T14:52:58.465Z,0
2016-12-21T14:54:07.152Z,0
2016-12-21T14:55:15.843Z,0
2016-12-21T14:56:24.532Z,0
2016-12-21T14:57:33.226Z,0
2016-12-21T14:58:41.916Z,0
2016-12-21T14:59:50.605Z,0
2016-12-21T15:00:59.297Z,0
2016-12-21T15:02:07.983Z,0
2016-12-21T15:03:17.001Z,0
2016-12-21T15:04:25.714Z,0
2016-12-21T15:05:34.404Z,0
2016-12-21T15:06:43.103Z,0
2016-12-21T15:07:51.789Z,0
2016-12-21T15:09:00.483Z,0
2016-12-21T15:10:09.179Z,0
2016-12-21T15:11:17.869Z,0
2016-12-21T15:12:26.561Z,0
2016-12-21T15:13:35.248Z,0
2016-12-21T15:14:43.936Z,0
2016-12-21T15:15:52.628Z,0
2016-12-21T15:17:01.323Z,0
2016-12-21T15:18:10.011Z,0
2016-12-21T15:19:18.703Z,0
2016-12-21T15:20:27.391Z,0
2016-12-21T15:21:36.078Z,0
2016-12-21T15:22:44.766Z,0
2016-12-21T15:23:53.459Z,0
2016-12-21T15:25:02.152Z,0
2016-12-21T15:26:10.838Z,0
2016-12-21T15:27:19.528Z,0
2016-12-21T15:28:28.220Z,0
2016-12-21T15:29:36.913Z,0
2016-12-21T15:30:45.604Z,0
2016-12-21T15:31:54.294Z,0
2016-12-21T15:33:02.992Z,0
2016-12-21T15:34:11.680Z,0
2016-12-21T15:35:20.374Z,0
2016-12-21T15:36:29.062Z,0
2016-12-21T15:37:37.751Z,0
2016-12-21T15:38:46.444Z,0
2016-12-21T15:39:55.138Z,0
2016-12-21T15:41:03.831Z,0
2016-12-21T15:42:12.522Z,0
2016-12-21T15:43:21.211Z,0
2016-12-21T15:44:29.907Z,0
2016-12-21T15:45:38.599Z,0
2016-12-21T15:46:47.518Z,0
2016-12-21T15:47:56.862Z,0
2016-12-21T15:49:05.553Z,0
2016-12-21T15:50:14.238Z,0
2016-12-21T15:51:23.706Z,0
2016-12-21T15:52:32.406Z,0
2016-12-21T15:53:41.673Z,0
2016-12-21T15:54:50.359Z,0
2016-12-21T15:55:59.050Z,0
2016-12-21T15:57:07.743Z,0
2016-12-21T15:58:16.467Z,0
2016-12-21T15:59:25.159Z,0
2016-12-21T16:00:33.849Z,0
2016-12-21T16:01:42.536Z,0
2016-12-21T16:02:51.227Z,0
2016-12-21T16:03:59.920Z,0
2016-12-21T16:05:08.616Z,0
2016-12-21T16:06:17.306Z,0
2016-12-21T16:07:25.995Z,0
2016-12-21T16:08:34.688Z,0
2016-12-21T16:09:43.384Z,0
2016-12-21T16:10:52.072Z,0
2016-12-21T16:12:00.808Z,0
2016-12-21T16:13:09.813Z,0
2016-12-21T16:14:18.554Z,0
2016-12-21T16:15:27.250Z,0
2016-12-21T16:16:35.945Z,0
2016-12-21T16:17:44.634Z,0
2016-12-21T16:18:53.325Z,0
2016-12-21T16:20:02.019Z,0
2016-12-21T16:21:11.050Z,0
2016-12-21T16:22:20.284Z,0
2016-12-21T16:23:28.973Z,0
2016-12-21T16:24:37.660Z,0
2016-12-21T16:25:46.360Z,0
2016-12-21T16:26:55.049Z,0
2016-12-21T16:28:04.065Z,0
2016-12-21T16:29:12.762Z,0
2016-12-21T16:30:21.455Z,0
2016-12-21T16:31:30.148Z,0
2016-12-21T16:32:38.841Z,0
2016-12-21T16:33:47.527Z,0
2016-12-21T16:34:56.219Z,0
2016-12-21T16:36:04.913Z,0
2016-12-21T16:37:13.600Z,0
2016-12-21T16:38:22.295Z,0
2016-12-21T16:39:30.987Z,0
2016-12-21T16:40:39.677Z,0
2016-12-21T16:41:48.368Z,0
2016-12-21T16:42:57.057Z,0
2016-12-21T16:44:05.745Z,0
2016-12-21T16:45:14.435Z,0